Time;durP1;ratioP1;P1;durP2;ratioP2;P2;SDS_P1;SDS_P2;PMS_P1;PMS_P2;Temp;Humidity;BMP_temperature;BMP_pressure;BME280_temperature;BME280_humidity;BME280_pressure;Samples;Min_cycle;Max_cycle;Signal;HPM_P1;HPM_P2
2021/05/13 00:01:48;;;;;;;5.22;2.35;;;13.70;62.20;;;;;;5026918;28;20033;-83
2021/05/13 00:04:14;;;;;;;2.97;2.47;;;13.70;62.20;;;;;;5027183;28;20443;-82
2021/05/13 00:06:40;;;;;;;3.75;2.00;;;13.70;62.30;;;;;;5027435;28;20037;-78
2021/05/13 00:09:09;;;;;;;3.10;2.20;;;13.70;62.30;;;;;;5027201;28;20032;-80
2021/05/13 00:11:37;;;;;;;4.20;2.40;;;13.60;62.20;;;;;;5027206;28;20465;-80
2021/05/13 00:14:05;;;;;;;2.58;2.00;;;13.70;62.40;;;;;;5026506;28;20030;-79
2021/05/13 00:16:34;;;;;;;3.15;1.92;;;13.60;62.20;;;;;;5026345;28;20479;-78
2021/05/13 00:19:06;;;;;;;4.90;2.53;;;13.60;62.20;;;;;;5025207;28;20378;-79
2021/05/13 00:21:33;;;;;;;3.80;2.33;;;13.60;62.80;;;;;;5025360;28;20029;-79
2021/05/13 00:23:59;;;;;;;3.10;2.13;;;13.60;62.20;;;;;;5009371;28;20030;-79
2021/05/13 00:26:40;;;;;;;5.57;2.40;;;13.50;62.10;;;;;;5025725;28;20029;-81
2021/05/13 00:29:12;;;;;;;5.00;2.58;;;13.50;62.10;;;;;;5010350;28;20039;-80
2021/05/13 00:31:40;;;;;;;3.60;2.40;;;13.60;62.40;;;;;;5026513;28;20025;-79
2021/05/13 00:34:07;;;;;;;5.45;2.83;;;13.50;62.10;;;;;;5013972;28;20109;-79
2021/05/13 00:36:37;;;;;;;4.50;2.47;;;13.50;62.20;;;;;;4989782;28;20612;-80
2021/05/13 00:39:09;;;;;;;4.60;2.15;;;13.50;62.30;;;;;;5006367;28;20409;-80
2021/05/13 00:41:37;;;;;;;5.47;2.33;;;13.40;62.10;;;;;;5005491;28;20088;-79
2021/05/13 00:44:07;;;;;;;6.15;2.55;;;13.40;62.10;;;;;;4990390;28;20025;-80
2021/05/13 00:46:36;;;;;;;3.78;2.22;;;13.40;62.10;;;;;;5009078;28;20100;-80
2021/05/13 00:49:07;;;;;;;4.53;2.55;;;13.40;62.10;;;;;;5017830;28;20033;-80
2021/05/13 00:51:33;;;;;;;3.97;2.50;;;13.40;62.10;;;;;;4996908;28;20026;-80
2021/05/13 00:54:00;;;;;;;4.03;2.28;;;13.30;62.00;;;;;;5012505;28;20783;-80
2021/05/13 00:56:28;;;;;;;5.15;2.30;;;13.30;62.00;;;;;;5012994;28;20034;-82
2021/05/13 00:59:03;;;;;;;3.08;2.40;;;13.30;62.10;;;;;;5012516;28;20050;-80
2021/05/13 01:02:02;;;;;;;3.28;2.40;;;13.30;62.10;;;;;;5012555;28;20424;-79
2021/05/13 01:04:23;;;;;;;3.75;2.20;;;13.30;62.20;;;;;;5026240;28;20040;-80
2021/05/13 01:06:51;;;;;;;5.43;2.70;;;13.30;62.20;;;;;;5013651;28;20041;-81
2021/05/13 01:09:24;;;;;;;7.38;2.85;;;13.30;62.20;;;;;;5008874;28;20037;-81
2021/05/13 01:11:58;;;;;;;4.85;2.45;;;13.30;62.30;;;;;;5009282;28;20180;-82
2021/05/13 01:14:31;;;;;;;5.28;2.40;;;13.30;62.30;;;;;;5006388;28;20029;-79
2021/05/13 01:19:39;;;;;;;4.95;2.63;;;13.30;62.30;;;;;;5029058;28;20041;-80
2021/05/13 01:22:05;;;;;;;5.15;2.38;;;13.30;62.30;;;;;;5012293;28;20029;-78
2021/05/13 01:24:32;;;;;;;6.05;2.47;;;13.20;62.10;;;;;;5028730;28;20045;-79
2021/05/13 01:26:58;;;;;;;3.67;2.38;;;13.20;62.20;;;;;;5028336;28;20021;-80
2021/05/13 01:29:27;;;;;;;3.88;2.08;;;13.20;62.20;;;;;;5029880;28;20029;-80
2021/05/13 01:31:54;;;;;;;3.03;2.50;;;13.20;62.30;;;;;;5022881;28;20141;-78
2021/05/13 01:34:21;;;;;;;3.25;2.33;;;13.20;62.30;;;;;;5030924;28;20029;-79
2021/05/13 01:36:48;;;;;;;4.65;2.33;;;13.20;62.30;;;;;;5011962;28;20461;-80
2021/05/13 01:39:14;;;;;;;5.00;2.80;;;13.20;62.80;;;;;;5021827;28;20041;-79
2021/05/13 01:41:42;;;;;;;6.25;2.45;;;13.20;62.40;;;;;;5031188;28;20029;-78
2021/05/13 01:44:09;;;;;;;3.35;2.40;;;13.20;62.40;;;;;;5030992;28;20021;-78
2021/05/13 01:46:38;;;;;;;4.68;2.72;;;13.10;62.20;;;;;;5009807;28;20042;-79
2021/05/13 01:49:05;;;;;;;3.53;2.75;;;13.10;62.20;;;;;;5033845;28;20129;-78
2021/05/13 01:51:32;;;;;;;3.05;2.38;;;13.10;62.30;;;;;;5032514;28;20079;-79
2021/05/13 01:53:58;;;;;;;3.25;2.45;;;13.10;62.30;;;;;;5032690;28;20029;-79
2021/05/13 01:56:24;;;;;;;4.10;2.30;;;13.10;62.30;;;;;;5033372;28;20396;-78
2021/05/13 01:58:50;;;;;;;4.72;2.67;;;13.10;62.30;;;;;;5032675;28;20041;-80
2021/05/13 02:01:18;;;;;;;4.78;3.25;;;13.10;62.30;;;;;;5016122;28;20033;-78
2021/05/13 02:03:44;;;;;;;6.93;2.78;;;13.10;62.30;;;;;;5032830;28;20025;-79
2021/05/13 02:06:12;;;;;;;5.10;2.60;;;13.10;62.30;;;;;;5033204;28;20021;-78
2021/05/13 02:08:38;;;;;;;3.58;2.30;;;13.10;62.40;;;;;;5032027;28;20033;-78
2021/05/13 02:11:05;;;;;;;2.63;2.38;;;13.00;62.20;;;;;;5033351;28;20057;-78
2021/05/13 02:13:31;;;;;;;4.00;2.78;;;13.10;62.40;;;;;;5015498;28;20060;-79
2021/05/13 02:15:57;;;;;;;5.45;2.30;;;13.00;62.20;;;;;;5015859;28;20032;-79
2021/05/13 02:18:23;;;;;;;3.97;3.08;;;13.00;62.30;;;;;;5015221;28;20082;-78
2021/05/13 02:20:50;;;;;;;4.97;3.38;;;13.00;62.30;;;;;;5031766;28;20029;-78
2021/05/13 02:23:21;;;;;;;3.60;2.80;;;13.00;62.30;;;;;;4999061;28;20040;-79
2021/05/13 02:25:49;;;;;;;3.70;2.45;;;13.00;62.30;;;;;;5015307;28;20033;-79
2021/05/13 02:28:17;;;;;;;6.65;2.78;;;13.00;62.30;;;;;;5015762;28;20045;-79
2021/05/13 02:30:45;;;;;;;4.13;2.75;;;12.90;62.10;;;;;;5015687;28;20063;-79
2021/05/13 02:33:13;;;;;;;4.05;2.72;;;12.90;62.20;;;;;;4996594;28;20034;-80
2021/05/13 02:35:40;;;;;;;2.90;2.30;;;12.90;62.20;;;;;;5014899;28;20029;-78
2021/05/13 02:38:06;;;;;;;3.63;2.22;;;12.90;62.30;;;;;;5031208;28;20503;-81
2021/05/13 02:40:33;;;;;;;4.88;2.70;;;12.90;62.30;;;;;;5032118;28;20044;-79
2021/05/13 02:42:59;;;;;;;3.67;2.55;;;12.90;62.30;;;;;;5015097;28;20052;-81
2021/05/13 02:45:25;;;;;;;3.20;2.20;;;12.80;62.10;;;;;;5015126;28;20040;-80
2021/05/13 02:47:52;;;;;;;4.55;2.47;;;12.80;62.20;;;;;;5015205;28;20050;-80
2021/05/13 02:50:19;;;;;;;6.55;3.05;;;12.80;62.20;;;;;;5030787;28;20183;-80
2021/05/13 02:52:46;;;;;;;4.15;2.85;;;12.80;62.20;;;;;;5014678;28;20027;-80
2021/05/13 02:55:13;;;;;;;3.10;2.65;;;12.80;62.30;;;;;;4998775;28;20114;-81
2021/05/13 02:57:40;;;;;;;3.55;2.50;;;12.80;62.30;;;;;;5014409;28;20029;-80
2021/05/13 03:02:45;;;;;;;4.28;2.38;;;12.80;62.40;;;;;;5030633;28;20025;-80
2021/05/13 03:05:14;;;;;;;4.60;2.95;;;12.80;62.40;;;;;;5014878;28;20129;-79
2021/05/13 03:07:52;;;;;;;3.90;2.40;;;12.80;62.40;;;;;;5013969;28;20445;-79
2021/05/13 03:10:25;;;;;;;4.55;2.90;;;12.70;62.20;;;;;;5014566;28;20033;-81
2021/05/13 03:12:54;;;;;;;;;;;12.70;62.20;;;;;;5015198;28;20041;-83
2021/05/13 03:15:21;;;;;;;5.35;2.90;;;12.70;62.10;;;;;;5014784;28;19909;-79
2021/05/13 03:17:49;;;;;;;4.13;2.65;;;12.70;62.00;;;;;;5014413;28;20035;-79
2021/05/13 03:20:20;;;;;;;3.00;2.38;;;12.70;62.10;;;;;;5014572;28;20124;-81
2021/05/13 03:22:49;;;;;;;2.58;2.25;;;12.70;62.10;;;;;;5014505;28;20428;-81
2021/05/13 03:25:16;;;;;;;4.82;2.67;;;12.70;62.20;;;;;;5014067;28;20068;-80
2021/05/13 03:27:49;;;;;;;5.30;2.83;;;12.60;62.00;;;;;;5014005;28;20549;-80
2021/05/13 03:30:18;;;;;;;3.05;2.60;;;12.70;62.20;;;;;;5013998;28;20029;-79
2021/05/13 03:32:44;;;;;;;4.93;3.17;;;12.60;62.10;;;;;;5014492;28;20477;-79
2021/05/13 03:35:15;;;;;;;4.82;2.80;;;12.60;62.10;;;;;;5014102;28;20035;-81
2021/05/13 03:37:46;;;;;;;5.90;2.67;;;12.60;62.20;;;;;;5030735;28;20400;-80
2021/05/13 03:40:13;;;;;;;4.72;3.15;;;12.60;62.20;;;;;;5032193;28;20030;-80
2021/05/13 03:42:39;;;;;;;7.13;2.70;;;12.60;62.20;;;;;;5031976;28;20029;-81
2021/05/13 03:45:06;;;;;;;7.03;2.75;;;12.60;62.30;;;;;;5031762;28;20040;-81
2021/05/13 03:47:32;;;;;;;3.88;3.13;;;12.60;62.30;;;;;;5046484;28;20103;-79
2021/05/13 03:49:58;;;;;;;5.80;3.17;;;12.50;62.20;;;;;;5051570;28;20020;-81
2021/05/13 03:52:24;;;;;;;4.85;3.33;;;12.50;62.20;;;;;;5051232;28;20029;-81
2021/05/13 03:54:50;;;;;;;3.85;3.20;;;12.50;62.30;;;;;;5051177;28;20027;-82
2021/05/13 03:57:16;;;;;;;5.00;2.90;;;12.50;62.20;;;;;;5051600;28;20029;-84
2021/05/13 03:59:42;;;;;;;6.05;3.53;;;12.50;62.30;;;;;;5051305;28;20072;-81
2021/05/13 04:02:51;;;;;;;3.85;2.63;;;12.50;62.30;;;;;;5051759;28;20035;-82
2021/05/13 04:04:59;;;;;;;3.33;2.88;;;12.50;62.30;;;;;;5040527;28;20040;-82
2021/05/13 04:07:36;;;;;;;4.38;3.10;;;12.50;62.30;;;;;;5055280;28;20664;-83
2021/05/13 04:10:06;;;;;;;5.57;3.05;;;12.50;62.40;;;;;;5039338;28;20033;-83
2021/05/13 04:12:35;;;;;;;4.93;2.80;;;12.50;62.30;;;;;;5062982;28;20036;-82
2021/05/13 04:15:01;;;;;;;4.85;3.22;;;12.40;62.10;;;;;;5039882;28;20052;-81
2021/05/13 04:17:27;;;;;;;5.22;3.10;;;12.50;62.30;;;;;;5042902;28;20028;-82
2021/05/13 04:19:53;;;;;;;5.10;3.67;;;12.40;62.20;;;;;;5061055;28;20174;-79
2021/05/13 04:22:19;;;;;;;5.35;3.78;;;12.40;62.20;;;;;;5061838;28;20112;-80
2021/05/13 04:24:44;;;;;;;5.28;3.55;;;12.40;62.20;;;;;;5059972;28;20440;-80
2021/05/13 04:27:10;;;;;;;4.13;3.67;;;12.40;62.20;;;;;;5060575;28;20033;-80
2021/05/13 04:29:36;;;;;;;5.82;3.67;;;12.40;62.20;;;;;;5061680;28;20387;-82
2021/05/13 04:32:02;;;;;;;5.30;3.65;;;12.40;62.20;;;;;;5034761;28;20040;-80
2021/05/13 04:34:28;;;;;;;6.78;3.75;;;12.40;62.20;;;;;;5040490;28;20456;-79
2021/05/13 04:36:55;;;;;;;5.93;3.40;;;12.40;62.20;;;;;;5040237;28;20136;-81
2021/05/13 04:39:35;;;;;;;4.85;3.92;;;12.40;62.30;;;;;;5032518;28;20412;-79
2021/05/13 04:42:28;;;;;;;7.70;4.80;;;12.40;62.30;;;;;;5040239;28;20036;-79
2021/05/13 04:44:57;;;;;;;5.72;4.28;;;12.30;62.20;;;;;;5041224;28;20026;-79
2021/05/13 04:47:33;;;;;;;5.03;4.30;;;12.30;62.10;;;;;;5039289;28;20679;-79
2021/05/13 04:50:00;;;;;;;5.47;4.35;;;12.30;62.20;;;;;;5018958;28;20033;-79
2021/05/13 04:52:27;;;;;;;6.95;4.88;;;12.30;62.20;;;;;;5037842;28;20171;-78
2021/05/13 04:54:55;;;;;;;7.72;4.65;;;12.30;62.20;;;;;;5036610;28;20116;-79
2021/05/13 04:57:22;;;;;;;5.55;4.45;;;12.30;62.30;;;;;;5028437;28;20112;-78
2021/05/13 04:59:48;;;;;;;6.13;4.25;;;12.30;62.30;;;;;;5029949;28;20660;-79
2021/05/13 05:02:14;;;;;;;6.95;4.22;;;12.40;62.50;;;;;;5044615;28;20487;-78
2021/05/13 05:04:40;;;;;;;6.78;4.28;;;12.30;62.30;;;;;;5037767;28;20369;-78
2021/05/13 05:07:06;;;;;;;6.15;3.95;;;12.30;62.30;;;;;;5036599;28;20083;-79
2021/05/13 05:09:33;;;;;;;6.55;4.88;;;12.30;62.40;;;;;;5045134;28;20029;-78
2021/05/13 05:11:59;;;;;;;7.78;4.78;;;12.30;62.40;;;;;;5028547;28;20122;-78
2021/05/13 05:14:25;;;;;;;8.43;5.28;;;12.30;62.40;;;;;;5014792;28;20569;-78
2021/05/13 05:16:51;;;;;;;6.10;4.75;;;12.30;62.40;;;;;;5039996;28;20037;-77
2021/05/13 05:19:17;;;;;;;8.60;5.07;;;12.30;62.40;;;;;;5030342;28;20041;-78
2021/05/13 05:21:43;;;;;;;5.63;4.47;;;12.30;62.40;;;;;;5014093;28;20032;-80
2021/05/13 05:24:10;;;;;;;7.72;5.10;;;12.30;62.40;;;;;;5044964;28;20037;-77
2021/05/13 05:26:36;;;;;;;7.10;4.88;;;12.40;62.60;;;;;;5028284;28;20025;-78
2021/05/13 05:29:03;;;;;;;7.38;5.10;;;12.40;62.50;;;;;;5040719;28;20029;-78
2021/05/13 05:31:30;;;;;;;9.00;5.22;;;12.40;62.50;;;;;;5015094;28;20024;-78
2021/05/13 05:33:56;;;;;;;6.47;4.53;;;12.40;62.50;;;;;;5031631;28;20480;-79
2021/05/13 05:36:26;;;;;;;5.05;4.55;;;12.40;62.50;;;;;;5015490;28;20083;-79
2021/05/13 05:38:52;;;;;;;7.20;5.05;;;12.40;62.50;;;;;;5027199;28;20045;-79
2021/05/13 05:41:18;;;;;;;6.63;4.93;;;12.50;62.70;;;;;;5032919;28;20049;-79
2021/05/13 05:43:44;;;;;;;7.20;4.97;;;12.50;62.70;;;;;;5022015;28;20588;-79
2021/05/13 05:46:10;;;;;;;5.88;5.20;;;12.50;62.60;;;;;;5015464;28;20037;-79
2021/05/13 05:48:36;;;;;;;5.97;5.07;;;12.50;62.60;;;;;;5015126;28;20414;-79
2021/05/13 05:51:02;;;;;;;8.00;5.70;;;12.60;62.80;;;;;;5015302;28;20032;-80
2021/05/13 05:53:28;;;;;;;7.88;5.43;;;12.60;62.80;;;;;;5031658;28;20031;-79
2021/05/13 05:55:54;;;;;;;5.53;4.82;;;12.60;62.80;;;;;;5012680;28;20029;-78
2021/05/13 05:58:20;;;;;;;6.68;5.28;;;12.70;62.90;;;;;;5028222;28;20037;-80
2021/05/13 06:00:46;;;;;;;5.78;5.18;;;12.70;63.10;;;;;;5030448;28;20079;-78
2021/05/13 06:03:12;;;;;;;6.45;5.05;;;12.80;63.40;;;;;;5031130;28;20401;-80
2021/05/13 06:05:41;;;;;;;7.22;5.60;;;12.90;63.60;;;;;;5011650;28;20441;-78
2021/05/13 06:08:07;;;;;;;5.93;5.18;;;12.90;63.50;;;;;;5017572;28;20063;-77
2021/05/13 06:10:33;;;;;;;6.68;5.70;;;13.00;63.60;;;;;;5049193;28;20124;-78
2021/05/13 06:12:59;;;;;;;7.15;4.93;;;13.00;63.60;;;;;;5049020;28;20127;-81
2021/05/13 06:15:26;;;;;;;7.22;5.93;;;13.10;63.70;;;;;;5027211;28;20562;-78
2021/05/13 06:17:52;;;;;;;9.20;5.32;;;13.10;63.70;;;;;;5042419;28;20391;-77
2021/05/13 06:20:24;;;;;;;7.35;5.38;;;13.10;63.70;;;;;;5047766;28;20033;-75
2021/05/13 06:22:50;;;;;;;7.35;5.05;;;13.10;63.70;;;;;;5046500;28;20029;-76
2021/05/13 06:25:17;;;;;;;6.57;5.78;;;13.10;63.60;;;;;;5047520;28;20033;-77
2021/05/13 06:27:45;;;;;;;6.43;5.13;;;13.10;63.60;;;;;;5047794;28;20685;-78
2021/05/13 06:30:14;;;;;;;9.50;5.65;;;13.10;63.60;;;;;;5046950;28;20036;-77
2021/05/13 06:32:40;;;;;;;6.47;5.13;;;13.10;63.60;;;;;;5047275;28;20480;-77
2021/05/13 06:35:07;;;;;;;10.02;5.47;;;13.20;63.70;;;;;;5047354;28;20060;-78
2021/05/13 06:37:33;;;;;;;7.13;5.63;;;13.20;63.70;;;;;;5048975;28;20033;-80
2021/05/13 06:39:59;;;;;;;6.28;5.68;;;13.30;63.90;;;;;;5048877;28;20037;-78
2021/05/13 06:42:25;;;;;;;11.23;5.45;;;13.30;63.80;;;;;;5044361;28;20091;-78
2021/05/13 06:44:52;;;;;;;8.00;5.30;;;13.40;63.90;;;;;;5027624;28;20071;-79
2021/05/13 06:47:18;;;;;;;7.28;5.45;;;13.40;63.90;;;;;;5026738;28;20045;-79
2021/05/13 06:49:44;;;;;;;8.25;6.18;;;13.50;64.00;;;;;;5010069;28;20096;-78
2021/05/13 06:52:10;;;;;;;10.07;5.70;;;13.50;64.00;;;;;;5026958;28;20399;-79
2021/05/13 06:54:36;;;;;;;9.18;5.82;;;13.60;64.10;;;;;;5028005;28;20036;-78
2021/05/13 06:57:03;;;;;;;6.28;5.13;;;13.60;64.00;;;;;;5027240;28;20033;-78
2021/05/13 06:59:29;;;;;;;6.95;5.53;;;13.60;64.00;;;;;;5028181;28;20041;-78
2021/05/13 07:01:55;;;;;;;7.35;5.40;;;13.70;64.10;;;;;;5028385;28;20018;-80
2021/05/13 07:04:28;;;;;;;7.20;5.57;;;13.70;64.00;;;;;;5028085;28;20030;-78
2021/05/13 07:06:54;;;;;;;6.68;5.70;;;13.70;64.00;;;;;;5010420;28;20032;-78
2021/05/13 07:09:20;;;;;;;9.07;5.43;;;13.80;64.10;;;;;;5043543;28;20217;-78
2021/05/13 07:11:46;;;;;;;7.85;5.80;;;13.90;64.20;;;;;;5048224;28;20488;-79
2021/05/13 07:14:12;;;;;;;5.38;4.80;;;13.90;64.10;;;;;;5043871;28;20049;-78
2021/05/13 07:16:38;;;;;;;8.07;5.28;;;13.90;64.10;;;;;;5030014;28;20303;-80
2021/05/13 07:19:05;;;;;;;8.65;5.38;;;14.00;64.20;;;;;;5021192;28;20320;-79
2021/05/13 07:21:32;;;;;;;7.85;5.50;;;14.00;64.10;;;;;;5027536;28;20024;-83
2021/05/13 07:23:58;;;;;;;8.20;5.30;;;14.10;64.20;;;;;;5027519;28;20416;-81
2021/05/13 07:26:25;;;;;;;5.95;5.22;;;14.10;64.20;;;;;;5027798;28;20029;-80
2021/05/13 07:28:51;;;;;;;9.63;5.38;;;14.20;64.20;;;;;;5010299;28;20026;-80
2021/05/13 07:31:17;;;;;;;6.93;5.97;;;14.30;64.30;;;;;;5010132;28;20033;-80
2021/05/13 07:33:43;;;;;;;8.40;5.53;;;14.30;64.20;;;;;;5010586;28;20065;-80
2021/05/13 07:36:09;;;;;;;8.98;5.57;;;14.40;64.40;;;;;;5027390;28;20060;-80
2021/05/13 07:38:36;;;;;;;6.65;4.82;;;14.50;64.40;;;;;;5009815;28;20144;-81
2021/05/13 07:41:04;;;;;;;7.45;5.10;;;14.70;64.70;;;;;;5027527;28;20043;-80
2021/05/13 07:43:31;;;;;;;5.93;5.32;;;14.80;64.60;;;;;;5027618;28;20252;-82
2021/05/13 07:45:57;;;;;;;6.30;5.13;;;14.90;64.60;;;;;;5009819;28;20033;-82
2021/05/13 07:48:26;;;;;;;6.82;5.60;;;15.00;64.60;;;;;;5009604;28;20478;-82
2021/05/13 07:50:53;;;;;;;8.18;5.32;;;15.10;64.60;;;;;;5009442;28;20392;-80
2021/05/13 07:53:19;;;;;;;7.32;5.80;;;15.10;64.40;;;;;;5009391;28;20037;-82
2021/05/13 07:55:46;;;;;;;8.38;4.95;;;15.30;64.60;;;;;;5010078;28;20376;-81
2021/05/13 07:58:14;;;;;;;7.65;5.88;;;15.30;64.50;;;;;;4996127;28;20040;-80
2021/05/13 08:00:41;;;;;;;6.18;4.72;;;15.40;64.60;;;;;;5009273;28;20045;-81
2021/05/13 08:03:07;;;;;;;7.38;5.35;;;15.40;64.50;;;;;;5017667;28;20032;-81
2021/05/13 08:05:34;;;;;;;6.03;5.00;;;15.40;64.40;;;;;;5045600;28;20029;-79
2021/05/13 08:08:00;;;;;;;6.78;5.05;;;15.40;64.30;;;;;;5038421;28;20036;-79
2021/05/13 08:10:26;;;;;;;7.13;5.47;;;15.40;64.30;;;;;;4976944;28;20269;-80
2021/05/13 08:12:52;;;;;;;7.45;5.75;;;15.40;64.80;;;;;;5009480;28;20046;-81
2021/05/13 08:15:18;;;;;;;7.53;5.53;;;15.50;64.40;;;;;;5009863;28;20109;-80
2021/05/13 08:17:45;;;;;;;5.53;4.97;;;15.50;64.40;;;;;;5012698;28;20162;-79
2021/05/13 08:20:13;;;;;;;9.25;5.60;;;15.60;64.50;;;;;;5028971;28;20047;-78
2021/05/13 08:22:41;;;;;;;6.68;5.65;;;15.70;64.60;;;;;;5011880;28;20032;-78
2021/05/13 08:25:11;;;;;;;6.07;5.00;;;15.80;64.70;;;;;;5012716;28;20408;-78
2021/05/13 08:27:38;;;;;;;5.60;5.03;;;16.00;64.90;;;;;;5012605;28;20395;-79
2021/05/13 08:30:06;;;;;;;7.00;5.63;;;16.10;64.90;;;;;;4995914;28;20067;-81
2021/05/13 08:32:32;;;;;;;7.38;4.93;;;16.30;65.10;;;;;;5012458;28;20514;-79
2021/05/13 08:34:58;;;;;;;8.10;5.45;;;16.60;65.20;;;;;;5012427;28;20032;-80
2021/05/13 08:37:24;;;;;;;9.05;5.30;;;16.80;65.20;;;;;;5012145;28;20032;-80
2021/05/13 08:39:53;;;;;;;10.10;5.30;;;17.10;65.40;;;;;;5028940;28;20033;-80
2021/05/13 08:42:19;;;;;;;9.25;5.32;;;17.20;65.30;;;;;;5028106;28;20037;-80
2021/05/13 08:44:45;;;;;;;7.43;5.60;;;17.40;65.40;;;;;;5012498;28;20258;-80
2021/05/13 08:47:13;;;;;;;8.05;4.88;;;17.60;65.40;;;;;;5028569;28;20107;-78
2021/05/13 08:49:40;;;;;;;7.07;5.38;;;17.70;65.40;;;;;;5011856;28;20029;-80
2021/05/13 08:52:19;;;;;;;8.50;5.05;;;17.80;65.30;;;;;;5046178;28;20064;-77
2021/05/13 08:54:56;;;;;;;5.63;4.75;;;17.90;65.20;;;;;;5028605;28;20029;-79
2021/05/13 08:57:23;;;;;;;8.23;4.95;;;18.00;65.10;;;;;;5046515;28;20029;-78
2021/05/13 08:59:49;;;;;;;9.65;5.55;;;18.10;65.10;;;;;;5028537;28;20539;-78
2021/05/13 09:02:17;;;;;;;9.35;5.05;;;18.10;65.00;;;;;;5046741;28;20551;-80
2021/05/13 09:04:48;;;;;;;6.25;4.78;;;18.10;64.80;;;;;;5012639;28;20547;-80
2021/05/13 09:07:18;;;;;;;7.35;4.78;;;18.10;64.70;;;;;;5032372;28;20116;-80
2021/05/13 09:09:57;;;;;;;8.88;5.38;;;18.10;64.60;;;;;;5012288;28;20068;-81
2021/05/13 09:12:26;;;;;;;10.68;5.43;;;18.00;64.40;;;;;;4997955;28;20400;-79
2021/05/13 09:15:00;;;;;;;8.30;4.43;;;18.00;64.40;;;;;;5015656;28;21138;-79
2021/05/13 09:17:27;;;;;;;11.18;4.97;;;17.90;64.20;;;;;;5015915;28;20037;-79
2021/05/13 09:19:55;;;;;;;5.75;4.32;;;17.90;64.30;;;;;;5014748;28;20060;-80
2021/05/13 09:22:26;;;;;;;7.07;5.25;;;17.90;64.90;;;;;;5015530;28;20033;-79
2021/05/13 09:25:02;;;;;;;7.95;4.93;;;17.90;64.30;;;;;;5032652;28;20035;-78
2021/05/13 09:27:46;;;;;;;6.63;4.68;;;17.90;64.10;;;;;;5032224;28;20119;-79
2021/05/13 09:30:18;;;;;;;6.95;4.90;;;17.90;64.00;;;;;;5050265;28;20041;-79
2021/05/13 09:32:47;;;;;;;6.95;5.13;;;17.90;63.90;;;;;;5031996;28;20083;-81
2021/05/13 09:35:14;;;;;;;6.20;4.72;;;17.90;64.00;;;;;;5050166;28;20116;-80
2021/05/13 09:38:00;;;;;;;7.32;4.70;;;17.80;63.80;;;;;;5015801;28;20033;-80
2021/05/13 09:40:38;;;;;;;7.43;5.10;;;17.80;63.80;;;;;;5031751;28;20039;-79
2021/05/13 09:43:31;;;;;;;7.30;4.50;;;17.90;64.00;;;;;;5031989;28;20036;-79
2021/05/13 09:46:00;;;;;;;9.38;5.07;;;17.90;63.90;;;;;;5039816;28;20528;-79
2021/05/13 09:48:56;;;;;;;5.60;4.20;;;18.00;64.00;;;;;;5031825;28;20040;-78
2021/05/13 09:51:29;;;;;;;8.98;4.32;;;18.00;63.90;;;;;;5031280;28;20061;-79
2021/05/13 09:54:15;;;;;;;6.13;4.47;;;18.00;63.80;;;;;;5049147;28;20471;-78
2021/05/13 09:56:49;;;;;;;7.78;4.63;;;18.10;63.80;;;;;;5031320;28;20258;-78
2021/05/13 09:59:20;;;;;;;6.60;4.43;;;18.10;63.70;;;;;;5017053;28;20037;-79
2021/05/13 10:01:47;;;;;;;7.43;4.40;;;18.20;63.80;;;;;;5028143;28;20120;-78
2021/05/13 10:04:13;;;;;;;7.22;5.00;;;18.20;63.70;;;;;;5029486;28;20535;-79
2021/05/13 10:06:39;;;;;;;10.10;5.35;;;18.20;63.70;;;;;;5029558;28;20025;-78
2021/05/13 10:09:05;;;;;;;7.03;4.22;;;18.10;63.50;;;;;;5027735;28;20120;-77
2021/05/13 10:11:32;;;;;;;6.63;5.10;;;18.10;63.40;;;;;;5028938;28;20128;-79
2021/05/13 10:13:59;;;;;;;6.70;4.63;;;18.10;63.40;;;;;;5028301;28;20091;-79
2021/05/13 10:16:27;;;;;;;6.28;4.47;;;18.10;63.40;;;;;;5027644;28;20386;-78
2021/05/13 10:19:14;;;;;;;7.63;4.63;;;18.10;63.50;;;;;;5010730;28;20148;-77
2021/05/13 10:21:43;;;;;;;7.95;4.72;;;18.10;63.40;;;;;;5010863;28;20045;-78
2021/05/13 10:24:11;;;;;;;5.78;4.65;;;18.10;63.40;;;;;;5026858;28;20479;-77
2021/05/13 10:26:40;;;;;;;4.60;4.00;;;18.10;63.40;;;;;;5027905;28;20041;-77
2021/05/13 10:29:26;;;;;;;6.65;4.20;;;18.10;63.40;;;;;;5027710;28;20048;-77
2021/05/13 10:32:08;;;;;;;6.60;4.45;;;18.20;63.50;;;;;;5011771;28;20037;-77
2021/05/13 10:34:40;;;;;;;5.65;4.57;;;18.30;63.60;;;;;;5031214;28;20051;-77
2021/05/13 10:37:29;;;;;;;5.90;4.65;;;18.30;63.30;;;;;;5049541;28;20021;-79
2021/05/13 10:42:43;;;;;;;5.10;4.03;;;18.40;63.30;;;;;;5033140;28;20395;-78
2021/05/13 10:45:25;;;;;;;8.30;4.97;;;18.40;63.30;;;;;;5048395;28;20124;-78
2021/05/13 10:48:25;;;;;;;7.18;4.40;;;18.30;63.00;;;;;;5030636;28;20053;-79
2021/05/13 10:50:59;;;;;;;5.32;3.80;;;18.30;63.00;;;;;;5048590;28;20095;-77
2021/05/13 10:53:35;;;;;;;7.88;4.60;;;18.30;63.10;;;;;;5013757;28;20029;-78
2021/05/13 10:56:20;;;;;;;8.40;4.68;;;18.30;63.00;;;;;;5014252;28;20036;-77
2021/05/13 10:59:02;;;;;;;6.72;4.25;;;18.30;63.10;;;;;;5030314;28;20048;-77
2021/05/13 11:01:29;;;;;;;5.82;3.80;;;18.20;62.90;;;;;;5014001;28;20036;-77
2021/05/13 11:04:20;;;;;;;6.55;4.65;;;18.20;62.90;;;;;;5013505;28;20037;-77
2021/05/13 11:06:50;;;;;;;6.75;4.70;;;18.20;62.90;;;;;;5029886;28;20032;-76
2021/05/13 11:09:40;;;;;;;6.00;4.47;;;18.20;62.90;;;;;;5029637;28;20056;-78
2021/05/13 11:12:12;;;;;;;9.35;4.38;;;18.20;62.90;;;;;;5030136;28;20115;-79
2021/05/13 11:15:09;;;;;;;8.60;4.82;;;18.10;62.80;;;;;;5030002;28;20036;-79
2021/05/13 11:20:36;;;;;;;5.85;4.22;;;18.10;62.90;;;;;;5013369;28;20037;-81
2021/05/13 11:23:15;;;;;;;9.32;4.65;;;18.10;62.90;;;;;;5013018;28;20033;-80
2021/05/13 11:25:50;;;;;;;7.10;4.72;;;18.10;62.90;;;;;;5013509;28;20039;-80
2021/05/13 11:28:43;;;;;;;4.70;4.20;;;18.20;63.10;;;;;;4999343;28;20035;-81
2021/05/13 11:31:13;;;;;;;6.25;4.78;;;18.20;63.10;;;;;;5029288;28;20488;-79
2021/05/13 11:33:57;;;;;;;6.30;4.32;;;18.20;63.00;;;;;;5018299;28;20036;-79
2021/05/13 11:36:30;;;;;;;10.35;4.90;;;18.20;63.10;;;;;;5026829;28;20485;-80
2021/05/13 11:39:08;;;;;;;7.25;4.78;;;18.20;63.10;;;;;;5001847;28;20500;-80
2021/05/13 11:41:34;;;;;;;8.57;4.97;;;18.20;63.10;;;;;;4993275;28;20025;-80
2021/05/13 11:44:01;;;;;;;7.50;4.45;;;18.20;63.10;;;;;;5024149;28;20033;-78
2021/05/13 11:46:27;;;;;;;5.32;4.60;;;18.20;63.10;;;;;;5012831;28;20045;-80
2021/05/13 11:48:54;;;;;;;9.00;4.50;;;18.20;63.20;;;;;;5029560;28;20197;-80
2021/05/13 11:51:29;;;;;;;7.28;4.93;;;18.20;63.10;;;;;;5012721;28;20033;-80
2021/05/13 11:54:07;;;;;;;8.13;4.90;;;18.20;63.10;;;;;;5028627;28;20044;-82
2021/05/13 11:56:35;;;;;;;5.78;4.22;;;18.20;63.10;;;;;;5012185;28;20124;-81
2021/05/13 11:59:09;;;;;;;8.38;5.00;;;18.20;63.10;;;;;;5012479;28;20214;-81
2021/05/13 12:01:40;;;;;;;5.72;4.43;;;18.30;63.20;;;;;;5012506;28;20031;-80
2021/05/13 12:04:21;;;;;;;7.22;4.93;;;18.30;63.20;;;;;;5012253;28;20498;-80
2021/05/13 12:07:01;;;;;;;5.40;4.80;;;18.20;63.10;;;;;;5012071;28;20396;-81
2021/05/13 12:09:31;;;;;;;8.93;5.43;;;18.20;63.10;;;;;;5009574;28;20030;-82
2021/05/13 12:11:57;;;;;;;11.73;5.00;;;18.20;63.10;;;;;;5009014;28;20029;-81
2021/05/13 12:14:31;;;;;;;6.60;5.03;;;18.20;63.10;;;;;;5025560;28;20041;-81
2021/05/13 12:17:06;;;;;;;6.97;5.30;;;18.10;63.00;;;;;;4992403;28;20100;-79
2021/05/13 12:19:33;;;;;;;6.45;4.32;;;18.10;63.10;;;;;;4993170;28;20049;-81
2021/05/13 12:22:02;;;;;;;9.27;4.90;;;18.00;63.00;;;;;;5011987;28;20033;-81
2021/05/13 12:24:33;;;;;;;7.95;5.05;;;18.00;63.00;;;;;;5011925;28;20128;-83
2021/05/13 12:27:01;;;;;;;7.00;4.65;;;18.00;63.10;;;;;;5028538;28;20032;-80
2021/05/13 12:29:27;;;;;;;8.55;5.07;;;17.90;63.00;;;;;;5012623;28;20032;-82
2021/05/13 12:31:55;;;;;;;6.88;4.60;;;17.90;63.10;;;;;;5012530;28;20033;-81
2021/05/13 12:34:33;;;;;;;7.40;4.82;;;17.90;63.10;;;;;;5026013;28;20124;-85
2021/05/13 12:37:01;;;;;;;8.60;5.63;;;17.80;63.00;;;;;;5029111;28;20032;-82
2021/05/13 12:39:37;;;;;;;8.27;5.20;;;17.70;62.90;;;;;;5013659;28;20037;-83
2021/05/13 12:42:21;;;;;;;8.80;4.68;;;17.70;63.10;;;;;;5013425;28;20125;-84
2021/05/13 12:44:47;;;;;;;5.95;4.72;;;17.70;63.20;;;;;;5013480;28;20408;-82
2021/05/13 12:47:13;;;;;;;7.82;5.50;;;17.70;63.20;;;;;;5012928;28;20069;-80
2021/05/13 12:49:39;;;;;;;7.25;5.13;;;17.60;63.00;;;;;;5026837;28;20494;-83
2021/05/13 12:52:19;;;;;;;6.47;4.70;;;17.60;63.00;;;;;;5045796;28;20057;-83
2021/05/13 12:54:46;;;;;;;6.70;4.45;;;17.50;62.90;;;;;;5013126;28;20033;-82
2021/05/13 12:57:19;;;;;;;8.02;5.00;;;17.50;63.00;;;;;;4997408;28;20408;-82
2021/05/13 12:59:51;;;;;;;6.57;4.78;;;17.40;63.00;;;;;;5030946;28;20620;-81
2021/05/13 13:02:25;;;;;;;6.60;5.20;;;17.40;63.10;;;;;;5050692;28;20025;-79
2021/05/13 13:04:59;;;;;;;6.95;4.90;;;17.30;63.10;;;;;;5032830;28;20037;-80
2021/05/13 13:07:41;;;;;;;;;;;17.30;63.20;;;;;;5033868;28;20471;-80
2021/05/13 13:10:31;;;;;;;6.40;4.25;;;17.30;63.10;;;;;;5050595;28;19948;-79
2021/05/13 13:13:06;;;;;;;8.93;5.90;;;17.30;63.20;;;;;;5049679;28;20082;-78